Time,TemperatureF,DewpointF,PressureIn,WindDirection,WindDirectionDegrees,WindSpeedMPH,WindSpeedGustMPH,Humidity,HourlyPrecipIn,Conditions,Clouds,dailyrainin,SolarRadiationWatts/m^2,SoftwareType,DateUTC
2013-01-19 00:00:00,24.0,23.0,-100.00,NW,315,2.0,-999.0,93,-99.99,,,-99.99,0.000000,,2013-01-19 06:00:00,
2013-01-19 00:43:00,24.0,23.0,-100.00,NW,315,2.0,-999.0,93,-99.99,,,-99.99,0.000000,,2013-01-19 06:43:00,
2013-01-19 00:53:00,24.0,23.0,-100.00,NW,315,2.0,-999.0,93,-99.99,,,-99.99,0.000000,,2013-01-19 06:53:00,
2013-01-19 03:00:00,19.0,18.0,-100.00,NW,315,1.0,-999.0,94,-99.99,,,-99.99,0.000000,,2013-01-19 09:00:00,
2013-01-19 03:43:00,19.0,18.0,-100.00,NW,315,1.0,-999.0,94,-99.99,,,-99.99,0.000000,,2013-01-19 09:43:00,
2013-01-19 03:53:00,19.0,18.0,-100.00,NW,315,1.0,-999.0,94,-99.99,,,-99.99,0.000000,,2013-01-19 09:53:00,
2013-01-19 06:00:00,23.0,20.0,-100.00,NW,315,2.0,-999.0,89,-99.99,,,-99.99,0.000000,,2013-01-19 12:00:00,
2013-01-19 06:48:00,23.0,20.0,-100.00,NW,315,2.0,-999.0,89,-99.99,,,-99.99,0.000000,,2013-01-19 12:48:00,
2013-01-19 06:53:00,23.0,20.0,-100.00,NW,315,2.0,-999.0,89,-99.99,,,-99.99,0.000000,,2013-01-19 12:53:00,
2013-01-19 09:00:00,25.0,23.0,-100.00,SE,135,3.0,-999.0,92,-99.99,,,-99.99,30.160000,,2013-01-19 15:00:00,
2013-01-19 09:43:00,25.0,23.0,-100.00,SE,135,3.0,-999.0,92,-99.99,,,-99.99,30.160000,,2013-01-19 15:43:00,
2013-01-19 09:53:00,25.0,23.0,-100.00,SE,135,3.0,-999.0,92,-99.99,,,-99.99,30.160000,,2013-01-19 15:53:00,
2013-01-19 12:00:00,34.0,32.0,-100.00,South,180,6.0,-999.0,90,0.01,,,-99.99,187.919998,,2013-01-19 18:00:00,
2013-01-19 12:48:00,34.0,32.0,-100.00,South,180,6.0,-999.0,90,0.01,,,-99.99,187.919998,,2013-01-19 18:48:00,
2013-01-19 15:53:00,38.0,32.0,-100.00,SW,225,6.0,-999.0,78,-99.99,,,-99.99,85.839996,,2013-01-19 21:53:00,
2013-01-19 18:00:00,38.0,31.0,-100.00,WSW,247,9.0,-999.0,73,-99.99,,,-99.99,0.000000,,2013-01-20 00:00:00,
2013-01-19 18:48:00,38.0,31.0,-100.00,WSW,247,9.0,-999.0,73,-99.99,,,-99.99,0.000000,,2013-01-20 00:48:00,
2013-01-19 21:00:00,30.0,27.0,-100.00,WNW,292,10.0,-999.0,89,-99.99,,,-99.99,0.000000,,2013-01-20 03:00:00,
2013-01-19 21:47:00,30.0,27.0,-100.00,WNW,292,10.0,-999.0,89,-99.99,,,-99.99,0.000000,,2013-01-20 03:47:00,
2013-01-19 21:58:00,30.0,27.0,-100.00,WNW,292,10.0,-999.0,89,-99.99,,,-99.99,0.000000,,2013-01-20 03:58:00,